< Cyclone 200013 2001 Season Cyclone 200102 >
Cyclone 200101 (SAM)
General InformationTrack Information on Google MapsDetailed Wind InformationList of All Images || ResourceGoogle EarthGE AnimationAtom FeedGeoJSON
Detalied Best Track (Time Zone = UTC)
Year Month Day Hour Lat. Long. Pressure (hPa) Wind (kt) Class Image Chart
2000 11 28 00 -10.9 140.0 1005 19 2 Image --
2000 11 28 06 -10.9 138.7 1001 25 2 Image --
2000 11 28 12 -10.8 137.3 1003 23 2 Image --
2000 11 28 18 -10.6 136.1 1002 23 2 Image --
2000 11 29 00 -10.4 135.0 1003 23 2 Image --
2000 11 29 06 -10.1 134.1 1001 25 2 Image --
2000 11 29 12 -9.9 133.0 1003 23 2 Image --
2000 11 29 18 -9.9 132.0 1001 25 2 Image --
2000 11 30 00 -9.9 131.0 1003 23 2 Image --
2000 11 30 06 -9.9 130.0 1001 25 2 Image --
2000 11 30 12 -9.9 129.5 1002 23 2 Image --
2000 11 30 18 -9.9 129.3 1001 25 2 Image --
2000 12 1 00 -10.0 129.0 1003 23 2 Image --
2000 12 1 06 -10.2 128.9 1001 25 2 Image --
2000 12 1 12 -10.4 128.8 1001 25 2 Image --
2000 12 1 18 -10.5 128.7 1000 27 2 Image --
2000 12 2 00 -10.6 128.6 1001 25 2 Image --
2000 12 2 06 -10.8 128.4 999 29 2 Image --
2000 12 2 12 -10.9 128.2 1000 27 2 Image --
2000 12 2 18 -11.1 128.1 998 29 2 Image --
2000 12 3 00 -11.4 128.2 1000 27 2 Image --
2000 12 3 06 -11.9 128.4 997 31 2 Image --
2000 12 3 12 -12.5 128.5 997 31 2 Image --
2000 12 3 18 -13.2 128.3 997 31 2 Image --
2000 12 4 00 -13.9 127.6 998 29 2 Image --
2000 12 4 06 -14.2 126.9 996 33 2 Image --
2000 12 4 12 -14.3 126.1 994 35 3 Image --
2000 12 4 18 -14.3 125.3 994 35 3 Image --
2000 12 5 00 -14.2 124.8 992 39 3 Image --
2000 12 5 04 -14.0 124.4 990 41 3 Image --
2000 12 5 10 -13.9 123.7 985 49 4 Image --
2000 12 5 16 -14.1 123.0 980 54 4 Image --
2000 12 5 22 -14.4 122.2 980 54 4 Image --
2000 12 6 04 -14.5 122.1 975 60 4 Image --
2000 12 6 10 -15.0 122.0 975 60 4 Image --
2000 12 6 16 -15.7 122.0 975 60 4 Image --
2000 12 6 19 -16.0 121.9 975 60 4 Image --
2000 12 6 22 -16.3 121.7 970 64 5 Image --
2000 12 7 01 -16.6 121.5 970 64 5 Image --
2000 12 7 04 -16.9 121.3 970 64 5 Image --
2000 12 7 07 -17.3 121.1 970 64 5 Image --
2000 12 7 10 -17.5 121.0 965 70 5 Image --
2000 12 7 13 -17.6 120.9 960 76 5 Image --
2000 12 7 16 -17.7 120.8 955 80 5 Image --
2000 12 7 19 -17.8 120.8 950 84 5 Image --
2000 12 7 22 -17.8 120.8 950 84 5 Image --
2000 12 8 01 -17.9 120.9 950 84 5 Image --
2000 12 8 04 -18.0 121.0 950 84 5 Image --
2000 12 8 07 -18.3 121.2 945 89 5 Image --
2000 12 8 10 -18.5 121.4 940 93 5 Image --
2000 12 8 13 -18.8 121.6 935 97 5 Image --
2000 12 8 16 -19.1 121.6 940 93 5 Image --
2000 12 8 19 -19.2 121.9 950 84 5 Image --
2000 12 8 22 -19.4 122.2 955 80 5 Image --
2000 12 9 01 -19.7 122.4 960 76 5 Image --
2000 12 9 04 -20.0 122.6 965 70 5 Image --
2000 12 9 07 -20.3 122.9 970 64 5 Image --
2000 12 9 10 -20.5 123.3 975 60 4 Image --
2000 12 9 13 -20.7 123.6 980 54 4 Image --
2000 12 9 16 -20.8 123.9 980 54 4 Image --
2000 12 9 22 -21.0 124.3 985 49 4 Image --
2000 12 10 04 -21.4 124.9 985 49 4 Image --
2000 12 10 10 -21.7 125.2 990 41 3 Image --
2000 12 10 18 -21.5 125.8 990 41 3 Image --
2000 12 11 00 -21.4 126.0 992 39 3 Image --
2000 12 11 06 -21.3 126.9 996 33 2 Image --
2000 12 11 12 -21.1 128.0 995 35 3 Image --
2000 12 11 18 -20.4 128.5 994 35 3 Image --
2000 12 12 00 -19.9 129.0 992 39 3 Image --
2000 12 12 06 -20.0 129.5 990 41 3 Image --
2000 12 12 12 -20.4 130.0 987 45 3 Image --
2000 12 12 18 -20.4 131.0 989 43 3 Image --
2000 12 13 00 -20.4 132.0 990 41 3 Image --
2000 12 13 06 -20.4 133.0 992 39 3 Image --
2000 12 13 12 -20.4 134.0 994 35 3 Image --
2000 12 13 18 -20.4 134.8 996 33 2 Image --
2000 12 14 00 -20.4 135.5 998 29 2 Image --
< Cyclone 200013 2001 Season Cyclone 200102 >

Help